The Villages, Florida
Current Conditions -  °F | °C
As of 3:53 AM on Wednesday 22 Oct 2014 (Local Time) from KLEE Reporting Station
Clear Clear  
Wind Chill: 66°   Ceiling: Unl
Heat Index: 66°   Visibility: 10mi
Dew Point: 64°   Wind: 5mph
Humidity: 93%   Direction: 10°N
Pressure: 29.95"   Gusts: NA
Location:  28.9417°N, 81.9658°W
Report Text: KLEE 220753Z AUTO 01004KT 10SM CLR 19/18 A2995 RMK AO2 SLP139 T01890178
Loading
Personal Weather Stations






























Interactive Weather Map
Tropical Storm Tracking
New forecast layout! Learn more

10-Day Weather Forecast

Advertisements
Track Severe Weather on mobile